sensor_id;sensor_type;location;lat;lon;timestamp;P1;durP1;ratioP1;P2;durP2;ratioP2
10007;SDS011;5043;41.766;26.204;2024-01-30T00:01:19;7.77;;;6.40;;
10007;SDS011;5043;41.766;26.204;2024-01-30T00:03:45;9.30;;;6.00;;
10007;SDS011;5043;41.766;26.204;2024-01-30T00:06:11;8.47;;;6.47;;
10007;SDS011;5043;41.766;26.204;2024-01-30T00:08:37;9.67;;;6.33;;
10007;SDS011;5043;41.766;26.204;2024-01-30T00:11:02;9.00;;;5.80;;
10007;SDS011;5043;41.766;26.204;2024-01-30T00:13:28;9.60;;;6.73;;
10007;SDS011;5043;41.766;26.204;2024-01-30T00:15:53;12.67;;;7.80;;
10007;SDS011;5043;41.766;26.204;2024-01-30T00:18:19;8.00;;;6.43;;
10007;SDS011;5043;41.766;26.204;2024-01-30T00:20:44;10.00;;;6.37;;
10007;SDS011;5043;41.766;26.204;2024-01-30T00:23:10;8.27;;;6.40;;
10007;SDS011;5043;41.766;26.204;2024-01-30T00:25:36;11.53;;;7.27;;
10007;SDS011;5043;41.766;26.204;2024-01-30T00:28:01;9.63;;;6.87;;
10007;SDS011;5043;41.766;26.204;2024-01-30T00:30:30;8.93;;;6.90;;
10007;SDS011;5043;41.766;26.204;2024-01-30T00:32:55;11.37;;;6.90;;
10007;SDS011;5043;41.766;26.204;2024-01-30T00:35:20;9.37;;;7.20;;
10007;SDS011;5043;41.766;26.204;2024-01-30T00:37:47;9.13;;;7.13;;
10007;SDS011;5043;41.766;26.204;2024-01-30T00:40:13;7.00;;;5.77;;
10007;SDS011;5043;41.766;26.204;2024-01-30T00:42:43;8.13;;;6.10;;
10007;SDS011;5043;41.766;26.204;2024-01-30T00:45:12;7.67;;;5.10;;
10007;SDS011;5043;41.766;26.204;2024-01-30T00:47:41;10.17;;;5.43;;
10007;SDS011;5043;41.766;26.204;2024-01-30T00:50:07;8.50;;;6.33;;
10007;SDS011;5043;41.766;26.204;2024-01-30T00:52:32;9.03;;;6.80;;
10007;SDS011;5043;41.766;26.204;2024-01-30T00:54:58;7.47;;;4.97;;
10007;SDS011;5043;41.766;26.204;2024-01-30T00:57:24;6.00;;;5.30;;
10007;SDS011;5043;41.766;26.204;2024-01-30T00:59:50;7.03;;;5.33;;
10007;SDS011;5043;41.766;26.204;2024-01-30T01:02:15;6.80;;;4.83;;
10007;SDS011;5043;41.766;26.204;2024-01-30T01:04:42;8.47;;;5.67;;
10007;SDS011;5043;41.766;26.204;2024-01-30T01:07:08;6.80;;;4.90;;
10007;SDS011;5043;41.766;26.204;2024-01-30T01:09:34;6.50;;;5.00;;
10007;SDS011;5043;41.766;26.204;2024-01-30T01:11:59;11.63;;;6.00;;
10007;SDS011;5043;41.766;26.204;2024-01-30T01:14:24;6.77;;;4.97;;
10007;SDS011;5043;41.766;26.204;2024-01-30T01:16:50;9.37;;;5.83;;
10007;SDS011;5043;41.766;26.204;2024-01-30T01:19:15;7.60;;;5.60;;
10007;SDS011;5043;41.766;26.204;2024-01-30T01:21:41;8.50;;;5.67;;
10007;SDS011;5043;41.766;26.204;2024-01-30T01:24:06;6.90;;;4.80;;
10007;SDS011;5043;41.766;26.204;2024-01-30T01:26:32;6.93;;;5.20;;
10007;SDS011;5043;41.766;26.204;2024-01-30T01:28:57;7.53;;;5.43;;
10007;SDS011;5043;41.766;26.204;2024-01-30T01:31:23;8.17;;;4.87;;
10007;SDS011;5043;41.766;26.204;2024-01-30T01:33:49;8.37;;;5.83;;
10007;SDS011;5043;41.766;26.204;2024-01-30T01:36:15;6.77;;;5.33;;
10007;SDS011;5043;41.766;26.204;2024-01-30T01:38:41;8.87;;;5.60;;
10007;SDS011;5043;41.766;26.204;2024-01-30T01:41:06;7.23;;;4.97;;
10007;SDS011;5043;41.766;26.204;2024-01-30T01:43:32;7.63;;;5.40;;
10007;SDS011;5043;41.766;26.204;2024-01-30T01:45:57;6.87;;;5.40;;
10007;SDS011;5043;41.766;26.204;2024-01-30T01:48:23;6.63;;;5.30;;
10007;SDS011;5043;41.766;26.204;2024-01-30T01:50:48;6.77;;;5.17;;
10007;SDS011;5043;41.766;26.204;2024-01-30T01:53:14;15.90;;;8.63;;
10007;SDS011;5043;41.766;26.204;2024-01-30T01:55:41;8.00;;;5.60;;
10007;SDS011;5043;41.766;26.204;2024-01-30T01:58:06;6.10;;;4.50;;
10007;SDS011;5043;41.766;26.204;2024-01-30T02:00:34;7.23;;;4.80;;
10007;SDS011;5043;41.766;26.204;2024-01-30T02:03:01;7.50;;;5.10;;
10007;SDS011;5043;41.766;26.204;2024-01-30T02:05:29;6.87;;;4.90;;
10007;SDS011;5043;41.766;26.204;2024-01-30T02:07:55;8.40;;;4.53;;
10007;SDS011;5043;41.766;26.204;2024-01-30T02:10:21;6.20;;;4.90;;
10007;SDS011;5043;41.766;26.204;2024-01-30T02:12:48;6.60;;;4.80;;
10007;SDS011;5043;41.766;26.204;2024-01-30T02:15:14;7.57;;;5.17;;
10007;SDS011;5043;41.766;26.204;2024-01-30T02:17:39;7.90;;;5.50;;
10007;SDS011;5043;41.766;26.204;2024-01-30T02:20:05;7.87;;;5.17;;
10007;SDS011;5043;41.766;26.204;2024-01-30T02:22:31;5.77;;;4.47;;
10007;SDS011;5043;41.766;26.204;2024-01-30T02:24:59;12.53;;;7.20;;
10007;SDS011;5043;41.766;26.204;2024-01-30T02:27:24;10.17;;;5.43;;
10007;SDS011;5043;41.766;26.204;2024-01-30T02:29:50;6.47;;;4.70;;
10007;SDS011;5043;41.766;26.204;2024-01-30T02:32:15;9.43;;;5.10;;
10007;SDS011;5043;41.766;26.204;2024-01-30T02:34:41;7.63;;;4.80;;
10007;SDS011;5043;41.766;26.204;2024-01-30T02:37:06;10.10;;;5.33;;
10007;SDS011;5043;41.766;26.204;2024-01-30T02:39:32;8.30;;;5.57;;
10007;SDS011;5043;41.766;26.204;2024-01-30T02:41:57;7.07;;;5.37;;
10007;SDS011;5043;41.766;26.204;2024-01-30T02:44:23;6.93;;;5.13;;
10007;SDS011;5043;41.766;26.204;2024-01-30T02:46:48;8.13;;;5.20;;
10007;SDS011;5043;41.766;26.204;2024-01-30T02:49:14;8.33;;;5.10;;
10007;SDS011;5043;41.766;26.204;2024-01-30T02:51:39;8.00;;;5.47;;
10007;SDS011;5043;41.766;26.204;2024-01-30T02:54:04;7.43;;;5.30;;
10007;SDS011;5043;41.766;26.204;2024-01-30T02:56:30;9.10;;;5.00;;
10007;SDS011;5043;41.766;26.204;2024-01-30T02:58:55;10.17;;;5.33;;
10007;SDS011;5043;41.766;26.204;2024-01-30T03:01:21;7.10;;;5.60;;
10007;SDS011;5043;41.766;26.204;2024-01-30T03:03:47;6.80;;;5.33;;
10007;SDS011;5043;41.766;26.204;2024-01-30T03:06:12;6.87;;;5.47;;
10007;SDS011;5043;41.766;26.204;2024-01-30T03:08:40;8.40;;;5.43;;
10007;SDS011;5043;41.766;26.204;2024-01-30T03:11:05;8.20;;;4.53;;
10007;SDS011;5043;41.766;26.204;2024-01-30T03:13:31;9.00;;;5.10;;
10007;SDS011;5043;41.766;26.204;2024-01-30T03:15:56;8.00;;;5.23;;
10007;SDS011;5043;41.766;26.204;2024-01-30T03:18:22;6.67;;;4.83;;
10007;SDS011;5043;41.766;26.204;2024-01-30T03:20:48;6.67;;;4.77;;
10007;SDS011;5043;41.766;26.204;2024-01-30T03:23:13;7.03;;;5.33;;
10007;SDS011;5043;41.766;26.204;2024-01-30T03:25:38;6.30;;;4.83;;
10007;SDS011;5043;41.766;26.204;2024-01-30T03:28:04;6.20;;;5.13;;
10007;SDS011;5043;41.766;26.204;2024-01-30T03:30:30;6.70;;;5.03;;
10007;SDS011;5043;41.766;26.204;2024-01-30T03:32:55;8.70;;;5.00;;
10007;SDS011;5043;41.766;26.204;2024-01-30T03:35:20;7.13;;;5.03;;
10007;SDS011;5043;41.766;26.204;2024-01-30T03:37:46;6.43;;;5.10;;
10007;SDS011;5043;41.766;26.204;2024-01-30T03:40:12;12.23;;;5.67;;
10007;SDS011;5043;41.766;26.204;2024-01-30T03:42:38;6.97;;;5.13;;
10007;SDS011;5043;41.766;26.204;2024-01-30T03:45:03;7.67;;;5.80;;
10007;SDS011;5043;41.766;26.204;2024-01-30T03:47:29;8.57;;;4.53;;
10007;SDS011;5043;41.766;26.204;2024-01-30T03:49:54;5.60;;;4.60;;
10007;SDS011;5043;41.766;26.204;2024-01-30T03:52:20;7.27;;;5.60;;
10007;SDS011;5043;41.766;26.204;2024-01-30T03:54:45;7.67;;;5.00;;
10007;SDS011;5043;41.766;26.204;2024-01-30T03:57:11;7.57;;;5.23;;
10007;SDS011;5043;41.766;26.204;2024-01-30T03:59:37;8.83;;;6.30;;
10007;SDS011;5043;41.766;26.204;2024-01-30T04:02:03;13.47;;;8.13;;
10007;SDS011;5043;41.766;26.204;2024-01-30T04:04:29;9.87;;;6.27;;
10007;SDS011;5043;41.766;26.204;2024-01-30T04:06:54;7.37;;;5.17;;
10007;SDS011;5043;41.766;26.204;2024-01-30T04:09:20;9.70;;;5.70;;
10007;SDS011;5043;41.766;26.204;2024-01-30T04:11:45;8.83;;;6.03;;
10007;SDS011;5043;41.766;26.204;2024-01-30T04:14:11;9.00;;;5.77;;
10007;SDS011;5043;41.766;26.204;2024-01-30T04:16:36;8.00;;;5.57;;
10007;SDS011;5043;41.766;26.204;2024-01-30T04:19:02;9.57;;;6.50;;
10007;SDS011;5043;41.766;26.204;2024-01-30T04:21:28;7.83;;;6.27;;
10007;SDS011;5043;41.766;26.204;2024-01-30T04:23:54;8.97;;;6.90;;
10007;SDS011;5043;41.766;26.204;2024-01-30T04:26:19;11.30;;;6.37;;
10007;SDS011;5043;41.766;26.204;2024-01-30T04:28:45;9.83;;;6.57;;
10007;SDS011;5043;41.766;26.204;2024-01-30T04:31:10;10.60;;;7.03;;
10007;SDS011;5043;41.766;26.204;2024-01-30T04:33:36;13.23;;;7.77;;
10007;SDS011;5043;41.766;26.204;2024-01-30T04:36:02;14.67;;;9.13;;
10007;SDS011;5043;41.766;26.204;2024-01-30T04:38:28;8.77;;;6.93;;
10007;SDS011;5043;41.766;26.204;2024-01-30T04:40:54;8.90;;;6.63;;
10007;SDS011;5043;41.766;26.204;2024-01-30T04:43:19;10.27;;;6.47;;
10007;SDS011;5043;41.766;26.204;2024-01-30T04:45:45;8.73;;;6.27;;
10007;SDS011;5043;41.766;26.204;2024-01-30T04:48:11;8.43;;;6.10;;
10007;SDS011;5043;41.766;26.204;2024-01-30T04:50:36;8.97;;;6.10;;
10007;SDS011;5043;41.766;26.204;2024-01-30T04:53:02;10.57;;;6.50;;
10007;SDS011;5043;41.766;26.204;2024-01-30T04:55:27;7.80;;;5.97;;
10007;SDS011;5043;41.766;26.204;2024-01-30T04:57:53;8.33;;;6.60;;
10007;SDS011;5043;41.766;26.204;2024-01-30T05:00:18;7.47;;;5.93;;
10007;SDS011;5043;41.766;26.204;2024-01-30T05:02:44;9.00;;;5.90;;
10007;SDS011;5043;41.766;26.204;2024-01-30T05:05:10;10.27;;;7.40;;
10007;SDS011;5043;41.766;26.204;2024-01-30T05:07:36;8.80;;;5.90;;
10007;SDS011;5043;41.766;26.204;2024-01-30T05:10:02;9.17;;;6.47;;
10007;SDS011;5043;41.766;26.204;2024-01-30T05:12:30;9.90;;;6.73;;
10007;SDS011;5043;41.766;26.204;2024-01-30T05:14:56;7.87;;;6.43;;
10007;SDS011;5043;41.766;26.204;2024-01-30T05:17:21;14.93;;;10.17;;
10007;SDS011;5043;41.766;26.204;2024-01-30T05:19:47;12.17;;;6.73;;
10007;SDS011;5043;41.766;26.204;2024-01-30T05:22:12;8.87;;;6.47;;
10007;SDS011;5043;41.766;26.204;2024-01-30T05:24:40;10.40;;;6.50;;
10007;SDS011;5043;41.766;26.204;2024-01-30T05:27:09;10.70;;;7.80;;
10007;SDS011;5043;41.766;26.204;2024-01-30T05:29:35;15.07;;;8.63;;
10007;SDS011;5043;41.766;26.204;2024-01-30T05:32:00;15.10;;;9.70;;
10007;SDS011;5043;41.766;26.204;2024-01-30T05:34:26;18.17;;;12.57;;
10007;SDS011;5043;41.766;26.204;2024-01-30T05:36:52;15.63;;;10.57;;
10007;SDS011;5043;41.766;26.204;2024-01-30T05:39:17;18.00;;;10.67;;
10007;SDS011;5043;41.766;26.204;2024-01-30T05:41:43;10.80;;;7.70;;
10007;SDS011;5043;41.766;26.204;2024-01-30T05:44:08;10.03;;;8.00;;
10007;SDS011;5043;41.766;26.204;2024-01-30T05:46:35;11.53;;;6.17;;
10007;SDS011;5043;41.766;26.204;2024-01-30T05:49:00;7.50;;;6.30;;
10007;SDS011;5043;41.766;26.204;2024-01-30T05:51:26;9.43;;;6.87;;
10007;SDS011;5043;41.766;26.204;2024-01-30T05:53:53;10.63;;;6.27;;
10007;SDS011;5043;41.766;26.204;2024-01-30T05:56:19;9.50;;;5.97;;
10007;SDS011;5043;41.766;26.204;2024-01-30T05:58:44;9.63;;;5.90;;
10007;SDS011;5043;41.766;26.204;2024-01-30T06:01:10;8.33;;;6.03;;
10007;SDS011;5043;41.766;26.204;2024-01-30T06:03:36;8.70;;;6.33;;
10007;SDS011;5043;41.766;26.204;2024-01-30T06:06:01;9.23;;;6.07;;
10007;SDS011;5043;41.766;26.204;2024-01-30T06:08:27;9.80;;;6.03;;
10007;SDS011;5043;41.766;26.204;2024-01-30T06:10:53;12.10;;;5.90;;
10007;SDS011;5043;41.766;26.204;2024-01-30T06:13:19;8.17;;;5.53;;
10007;SDS011;5043;41.766;26.204;2024-01-30T06:15:45;33.10;;;15.57;;
10007;SDS011;5043;41.766;26.204;2024-01-30T06:18:10;9.73;;;6.73;;
10007;SDS011;5043;41.766;26.204;2024-01-30T06:20:35;15.70;;;8.57;;
10007;SDS011;5043;41.766;26.204;2024-01-30T06:23:01;17.67;;;8.50;;
10007;SDS011;5043;41.766;26.204;2024-01-30T06:25:26;12.73;;;6.67;;
10007;SDS011;5043;41.766;26.204;2024-01-30T06:27:52;10.73;;;6.73;;
10007;SDS011;5043;41.766;26.204;2024-01-30T06:30:17;15.33;;;7.33;;
10007;SDS011;5043;41.766;26.204;2024-01-30T06:32:43;9.27;;;6.90;;
10007;SDS011;5043;41.766;26.204;2024-01-30T06:35:09;9.03;;;6.30;;
10007;SDS011;5043;41.766;26.204;2024-01-30T06:37:35;8.20;;;6.27;;
10007;SDS011;5043;41.766;26.204;2024-01-30T06:40:01;10.93;;;6.67;;
10007;SDS011;5043;41.766;26.204;2024-01-30T06:42:30;13.83;;;9.23;;
10007;SDS011;5043;41.766;26.204;2024-01-30T06:44:56;19.03;;;11.10;;
10007;SDS011;5043;41.766;26.204;2024-01-30T06:47:21;15.87;;;8.07;;
10007;SDS011;5043;41.766;26.204;2024-01-30T06:49:47;9.80;;;7.13;;
10007;SDS011;5043;41.766;26.204;2024-01-30T06:52:12;12.53;;;7.90;;
10007;SDS011;5043;41.766;26.204;2024-01-30T06:54:39;10.80;;;7.13;;
10007;SDS011;5043;41.766;26.204;2024-01-30T06:57:04;11.60;;;7.47;;
10007;SDS011;5043;41.766;26.204;2024-01-30T06:59:33;9.63;;;6.27;;
10007;SDS011;5043;41.766;26.204;2024-01-30T07:01:59;7.67;;;5.87;;
10007;SDS011;5043;41.766;26.204;2024-01-30T07:04:25;7.73;;;5.47;;
10007;SDS011;5043;41.766;26.204;2024-01-30T07:06:50;7.60;;;5.63;;
10007;SDS011;5043;41.766;26.204;2024-01-30T07:09:16;8.67;;;6.17;;
10007;SDS011;5043;41.766;26.204;2024-01-30T07:11:41;22.23;;;12.77;;
10007;SDS011;5043;41.766;26.204;2024-01-30T07:14:07;30.67;;;21.00;;
10007;SDS011;5043;41.766;26.204;2024-01-30T07:16:34;16.00;;;9.50;;
10007;SDS011;5043;41.766;26.204;2024-01-30T07:18:59;13.97;;;8.30;;
10007;SDS011;5043;41.766;26.204;2024-01-30T07:21:25;13.77;;;7.53;;
10007;SDS011;5043;41.766;26.204;2024-01-30T07:23:56;12.47;;;6.67;;
10007;SDS011;5043;41.766;26.204;2024-01-30T07:26:22;14.27;;;7.07;;
10007;SDS011;5043;41.766;26.204;2024-01-30T07:28:47;13.17;;;6.20;;
10007;SDS011;5043;41.766;26.204;2024-01-30T07:31:13;9.90;;;6.97;;
10007;SDS011;5043;41.766;26.204;2024-01-30T07:33:38;11.00;;;6.30;;
10007;SDS011;5043;41.766;26.204;2024-01-30T07:36:04;9.53;;;5.73;;
10007;SDS011;5043;41.766;26.204;2024-01-30T07:38:33;7.70;;;5.37;;
10007;SDS011;5043;41.766;26.204;2024-01-30T07:40:58;7.17;;;5.60;;
10007;SDS011;5043;41.766;26.204;2024-01-30T07:43:24;13.87;;;7.90;;
10007;SDS011;5043;41.766;26.204;2024-01-30T07:45:50;11.73;;;7.53;;
10007;SDS011;5043;41.766;26.204;2024-01-30T07:48:16;7.97;;;5.13;;
10007;SDS011;5043;41.766;26.204;2024-01-30T07:50:42;9.97;;;6.80;;
10007;SDS011;5043;41.766;26.204;2024-01-30T07:53:07;6.87;;;5.27;;
10007;SDS011;5043;41.766;26.204;2024-01-30T07:55:33;6.73;;;5.40;;
10007;SDS011;5043;41.766;26.204;2024-01-30T07:57:59;6.40;;;4.93;;
10007;SDS011;5043;41.766;26.204;2024-01-30T08:00:26;6.17;;;4.40;;
10007;SDS011;5043;41.766;26.204;2024-01-30T08:02:52;8.77;;;5.60;;
10007;SDS011;5043;41.766;26.204;2024-01-30T08:05:20;8.83;;;5.80;;
10007;SDS011;5043;41.766;26.204;2024-01-30T08:07:47;6.73;;;5.13;;
10007;SDS011;5043;41.766;26.204;2024-01-30T08:10:14;5.80;;;5.07;;
10007;SDS011;5043;41.766;26.204;2024-01-30T08:12:40;7.67;;;5.57;;
10007;SDS011;5043;41.766;26.204;2024-01-30T08:15:07;5.80;;;4.40;;
10007;SDS011;5043;41.766;26.204;2024-01-30T08:17:33;6.10;;;4.60;;
10007;SDS011;5043;41.766;26.204;2024-01-30T08:19:59;11.17;;;7.87;;
10007;SDS011;5043;41.766;26.204;2024-01-30T08:22:25;8.07;;;5.63;;
10007;SDS011;5043;41.766;26.204;2024-01-30T08:24:50;10.20;;;6.03;;
10007;SDS011;5043;41.766;26.204;2024-01-30T08:27:16;10.43;;;7.27;;
10007;SDS011;5043;41.766;26.204;2024-01-30T08:29:42;8.83;;;6.30;;
10007;SDS011;5043;41.766;26.204;2024-01-30T08:32:07;8.57;;;5.80;;
10007;SDS011;5043;41.766;26.204;2024-01-30T08:34:33;10.80;;;5.77;;
10007;SDS011;5043;41.766;26.204;2024-01-30T08:36:59;7.80;;;5.63;;
10007;SDS011;5043;41.766;26.204;2024-01-30T08:39:24;12.20;;;7.90;;
10007;SDS011;5043;41.766;26.204;2024-01-30T08:41:50;17.15;;;9.63;;
10007;SDS011;5043;41.766;26.204;2024-01-30T08:44:15;16.53;;;8.90;;
10007;SDS011;5043;41.766;26.204;2024-01-30T08:46:42;11.83;;;8.47;;
10007;SDS011;5043;41.766;26.204;2024-01-30T08:49:08;9.35;;;6.45;;
10007;SDS011;5043;41.766;26.204;2024-01-30T08:51:34;13.07;;;7.63;;
10007;SDS011;5043;41.766;26.204;2024-01-30T08:54:00;10.40;;;6.70;;
10007;SDS011;5043;41.766;26.204;2024-01-30T08:56:27;11.23;;;7.30;;
10007;SDS011;5043;41.766;26.204;2024-01-30T08:58:53;9.73;;;5.83;;
10007;SDS011;5043;41.766;26.204;2024-01-30T09:01:18;8.40;;;5.90;;
10007;SDS011;5043;41.766;26.204;2024-01-30T09:03:44;10.17;;;6.50;;
10007;SDS011;5043;41.766;26.204;2024-01-30T09:06:11;7.50;;;5.47;;
10007;SDS011;5043;41.766;26.204;2024-01-30T09:08:37;17.67;;;8.23;;
10007;SDS011;5043;41.766;26.204;2024-01-30T09:11:09;11.67;;;6.87;;
10007;SDS011;5043;41.766;26.204;2024-01-30T09:13:36;7.20;;;5.30;;
10007;SDS011;5043;41.766;26.204;2024-01-30T09:16:02;12.47;;;5.73;;
10007;SDS011;5043;41.766;26.204;2024-01-30T09:18:28;8.03;;;5.57;;
10007;SDS011;5043;41.766;26.204;2024-01-30T09:20:53;6.20;;;4.93;;
10007;SDS011;5043;41.766;26.204;2024-01-30T09:23:19;6.53;;;5.40;;
10007;SDS011;5043;41.766;26.204;2024-01-30T09:25:45;6.30;;;4.50;;
10007;SDS011;5043;41.766;26.204;2024-01-30T09:28:10;5.80;;;4.47;;
10007;SDS011;5043;41.766;26.204;2024-01-30T09:30:36;7.90;;;4.47;;
10007;SDS011;5043;41.766;26.204;2024-01-30T09:33:01;7.50;;;5.28;;
10007;SDS011;5043;41.766;26.204;2024-01-30T09:35:27;8.27;;;5.67;;
10007;SDS011;5043;41.766;26.204;2024-01-30T09:37:52;6.30;;;4.60;;
10007;SDS011;5043;41.766;26.204;2024-01-30T09:40:18;10.13;;;5.33;;
10007;SDS011;5043;41.766;26.204;2024-01-30T09:42:46;7.73;;;5.60;;
10007;SDS011;5043;41.766;26.204;2024-01-30T09:45:15;6.83;;;4.57;;
10007;SDS011;5043;41.766;26.204;2024-01-30T09:47:42;7.05;;;4.38;;
10007;SDS011;5043;41.766;26.204;2024-01-30T09:50:09;6.37;;;4.67;;
10007;SDS011;5043;41.766;26.204;2024-01-30T09:52:39;7.17;;;5.33;;
10007;SDS011;5043;41.766;26.204;2024-01-30T09:55:05;8.05;;;5.28;;
10007;SDS011;5043;41.766;26.204;2024-01-30T09:57:32;5.27;;;4.17;;
10007;SDS011;5043;41.766;26.204;2024-01-30T09:59:57;9.37;;;6.37;;
10007;SDS011;5043;41.766;26.204;2024-01-30T10:02:23;7.22;;;5.07;;
10007;SDS011;5043;41.766;26.204;2024-01-30T10:04:50;9.32;;;5.70;;
10007;SDS011;5043;41.766;26.204;2024-01-30T10:07:16;7.83;;;5.13;;
10007;SDS011;5043;41.766;26.204;2024-01-30T10:09:45;6.93;;;5.37;;
10007;SDS011;5043;41.766;26.204;2024-01-30T10:12:11;10.30;;;6.00;;
10007;SDS011;5043;41.766;26.204;2024-01-30T10:14:41;8.87;;;6.83;;
10007;SDS011;5043;41.766;26.204;2024-01-30T10:17:07;8.97;;;5.40;;
10007;SDS011;5043;41.766;26.204;2024-01-30T10:19:34;9.65;;;4.57;;
10007;SDS011;5043;41.766;26.204;2024-01-30T10:22:00;13.07;;;5.67;;
10007;SDS011;5043;41.766;26.204;2024-01-30T10:24:26;6.78;;;5.13;;
10007;SDS011;5043;41.766;26.204;2024-01-30T10:26:54;8.13;;;5.47;;
10007;SDS011;5043;41.766;26.204;2024-01-30T10:29:20;7.73;;;5.27;;
10007;SDS011;5043;41.766;26.204;2024-01-30T10:31:46;7.90;;;4.93;;
10007;SDS011;5043;41.766;26.204;2024-01-30T10:34:12;6.63;;;4.83;;
10007;SDS011;5043;41.766;26.204;2024-01-30T10:36:40;9.73;;;5.80;;
10007;SDS011;5043;41.766;26.204;2024-01-30T10:39:11;15.23;;;6.53;;
10007;SDS011;5043;41.766;26.204;2024-01-30T10:41:44;7.93;;;5.65;;
10007;SDS011;5043;41.766;26.204;2024-01-30T10:44:13;8.93;;;6.10;;
10007;SDS011;5043;41.766;26.204;2024-01-30T10:46:45;12.40;;;8.07;;
10007;SDS011;5043;41.766;26.204;2024-01-30T10:49:16;7.87;;;5.67;;
10007;SDS011;5043;41.766;26.204;2024-01-30T10:51:41;11.47;;;7.70;;
10007;SDS011;5043;41.766;26.204;2024-01-30T10:54:07;9.95;;;6.53;;
10007;SDS011;5043;41.766;26.204;2024-01-30T10:56:34;9.90;;;5.90;;
10007;SDS011;5043;41.766;26.204;2024-01-30T10:59:00;9.43;;;6.13;;
10007;SDS011;5043;41.766;26.204;2024-01-30T11:01:26;9.35;;;6.60;;
10007;SDS011;5043;41.766;26.204;2024-01-30T11:03:53;10.82;;;7.35;;
10007;SDS011;5043;41.766;26.204;2024-01-30T11:06:27;10.33;;;5.57;;
10007;SDS011;5043;41.766;26.204;2024-01-30T11:09:05;6.53;;;4.27;;
10007;SDS011;5043;41.766;26.204;2024-01-30T11:11:51;6.82;;;4.45;;
10007;SDS011;5043;41.766;26.204;2024-01-30T11:14:23;5.18;;;3.92;;
10007;SDS011;5043;41.766;26.204;2024-01-30T11:16:50;7.93;;;5.20;;
10007;SDS011;5043;41.766;26.204;2024-01-30T11:19:15;7.05;;;5.35;;
10007;SDS011;5043;41.766;26.204;2024-01-30T11:21:49;10.00;;;6.50;;
10007;SDS011;5043;41.766;26.204;2024-01-30T11:24:19;6.63;;;4.70;;
10007;SDS011;5043;41.766;26.204;2024-01-30T11:26:57;8.93;;;5.37;;
10007;SDS011;5043;41.766;26.204;2024-01-30T11:29:24;7.70;;;4.90;;
10007;SDS011;5043;41.766;26.204;2024-01-30T11:31:54;7.10;;;4.90;;
10007;SDS011;5043;41.766;26.204;2024-01-30T11:34:20;11.13;;;7.95;;
10007;SDS011;5043;41.766;26.204;2024-01-30T11:36:48;18.07;;;8.70;;
10007;SDS011;5043;41.766;26.204;2024-01-30T11:39:20;13.20;;;8.60;;
10007;SDS011;5043;41.766;26.204;2024-01-30T11:41:47;12.27;;;6.85;;
10007;SDS011;5043;41.766;26.204;2024-01-30T11:44:15;12.63;;;8.90;;
10007;SDS011;5043;41.766;26.204;2024-01-30T11:46:41;7.05;;;4.65;;
10007;SDS011;5043;41.766;26.204;2024-01-30T11:49:07;6.57;;;5.25;;
10007;SDS011;5043;41.766;26.204;2024-01-30T11:51:32;6.50;;;4.80;;
10007;SDS011;5043;41.766;26.204;2024-01-30T11:53:58;10.67;;;7.57;;
10007;SDS011;5043;41.766;26.204;2024-01-30T11:56:23;11.95;;;6.95;;
10007;SDS011;5043;41.766;26.204;2024-01-30T11:58:50;8.15;;;5.07;;
10007;SDS011;5043;41.766;26.204;2024-01-30T12:01:17;9.05;;;6.05;;
10007;SDS011;5043;41.766;26.204;2024-01-30T12:03:43;8.60;;;5.63;;
10007;SDS011;5043;41.766;26.204;2024-01-30T12:06:15;8.77;;;5.17;;
10007;SDS011;5043;41.766;26.204;2024-01-30T12:08:41;6.47;;;4.80;;
10007;SDS011;5043;41.766;26.204;2024-01-30T12:11:07;5.32;;;3.95;;
10007;SDS011;5043;41.766;26.204;2024-01-30T12:13:32;7.67;;;4.63;;
10007;SDS011;5043;41.766;26.204;2024-01-30T12:15:58;11.40;;;4.97;;
10007;SDS011;5043;41.766;26.204;2024-01-30T12:18:24;7.67;;;5.07;;
10007;SDS011;5043;41.766;26.204;2024-01-30T12:20:59;7.37;;;5.50;;
10007;SDS011;5043;41.766;26.204;2024-01-30T12:23:25;8.63;;;6.53;;
10007;SDS011;5043;41.766;26.204;2024-01-30T12:25:52;10.33;;;6.83;;
10007;SDS011;5043;41.766;26.204;2024-01-30T12:28:17;13.32;;;8.82;;
10007;SDS011;5043;41.766;26.204;2024-01-30T12:30:43;10.38;;;6.60;;
10007;SDS011;5043;41.766;26.204;2024-01-30T12:33:08;13.60;;;8.45;;
10007;SDS011;5043;41.766;26.204;2024-01-30T12:35:35;11.10;;;6.85;;
10007;SDS011;5043;41.766;26.204;2024-01-30T12:38:00;47.10;;;17.88;;
10007;SDS011;5043;41.766;26.204;2024-01-30T12:40:27;34.73;;;14.47;;
10007;SDS011;5043;41.766;26.204;2024-01-30T12:42:53;44.75;;;17.63;;
10007;SDS011;5043;41.766;26.204;2024-01-30T12:45:19;19.67;;;10.37;;
10007;SDS011;5043;41.766;26.204;2024-01-30T12:47:47;23.23;;;12.77;;
10007;SDS011;5043;41.766;26.204;2024-01-30T12:50:13;13.10;;;8.43;;
10007;SDS011;5043;41.766;26.204;2024-01-30T12:52:41;17.63;;;9.00;;
10007;SDS011;5043;41.766;26.204;2024-01-30T12:55:07;11.00;;;7.43;;
10007;SDS011;5043;41.766;26.204;2024-01-30T12:57:33;7.40;;;5.33;;
10007;SDS011;5043;41.766;26.204;2024-01-30T12:59:58;6.22;;;4.30;;
10007;SDS011;5043;41.766;26.204;2024-01-30T13:02:24;9.23;;;6.43;;
10007;SDS011;5043;41.766;26.204;2024-01-30T13:04:49;10.17;;;6.20;;
10007;SDS011;5043;41.766;26.204;2024-01-30T13:07:15;7.03;;;5.13;;
10007;SDS011;5043;41.766;26.204;2024-01-30T13:09:40;9.27;;;5.53;;
10007;SDS011;5043;41.766;26.204;2024-01-30T13:12:06;21.50;;;11.87;;
10007;SDS011;5043;41.766;26.204;2024-01-30T13:14:32;14.25;;;8.70;;
10007;SDS011;5043;41.766;26.204;2024-01-30T13:16:58;14.83;;;7.33;;
10007;SDS011;5043;41.766;26.204;2024-01-30T13:19:23;22.23;;;9.77;;
10007;SDS011;5043;41.766;26.204;2024-01-30T13:21:49;24.27;;;13.03;;
10007;SDS011;5043;41.766;26.204;2024-01-30T13:24:14;17.27;;;9.40;;
10007;SDS011;5043;41.766;26.204;2024-01-30T13:26:40;15.83;;;9.90;;
10007;SDS011;5043;41.766;26.204;2024-01-30T13:29:07;15.73;;;9.68;;
10007;SDS011;5043;41.766;26.204;2024-01-30T13:31:33;12.37;;;6.17;;
10007;SDS011;5043;41.766;26.204;2024-01-30T13:33:59;11.38;;;7.68;;
10007;SDS011;5043;41.766;26.204;2024-01-30T13:36:25;14.23;;;8.90;;
10007;SDS011;5043;41.766;26.204;2024-01-30T13:38:50;14.23;;;9.40;;
10007;SDS011;5043;41.766;26.204;2024-01-30T13:41:16;11.07;;;6.93;;
10007;SDS011;5043;41.766;26.204;2024-01-30T13:43:43;51.77;;;17.90;;
10007;SDS011;5043;41.766;26.204;2024-01-30T13:46:09;59.40;;;21.23;;
10007;SDS011;5043;41.766;26.204;2024-01-30T13:48:35;46.15;;;20.30;;
10007;SDS011;5043;41.766;26.204;2024-01-30T13:51:00;45.77;;;20.27;;
10007;SDS011;5043;41.766;26.204;2024-01-30T13:53:26;21.25;;;12.05;;
10007;SDS011;5043;41.766;26.204;2024-01-30T13:55:51;15.23;;;8.70;;
10007;SDS011;5043;41.766;26.204;2024-01-30T13:58:17;20.53;;;12.23;;
10007;SDS011;5043;41.766;26.204;2024-01-30T14:00:42;17.63;;;10.73;;
10007;SDS011;5043;41.766;26.204;2024-01-30T14:03:08;16.27;;;9.67;;
10007;SDS011;5043;41.766;26.204;2024-01-30T14:05:34;6.40;;;5.03;;
10007;SDS011;5043;41.766;26.204;2024-01-30T14:08:00;11.13;;;5.37;;
10007;SDS011;5043;41.766;26.204;2024-01-30T14:10:26;7.10;;;4.80;;
10007;SDS011;5043;41.766;26.204;2024-01-30T14:12:51;8.47;;;5.73;;
10007;SDS011;5043;41.766;26.204;2024-01-30T14:15:17;7.73;;;5.87;;
10007;SDS011;5043;41.766;26.204;2024-01-30T14:17:47;10.63;;;7.07;;
10007;SDS011;5043;41.766;26.204;2024-01-30T14:20:13;14.63;;;9.27;;
10007;SDS011;5043;41.766;26.204;2024-01-30T14:22:41;10.63;;;6.37;;
10007;SDS011;5043;41.766;26.204;2024-01-30T14:25:07;5.93;;;4.97;;
10007;SDS011;5043;41.766;26.204;2024-01-30T14:27:34;41.70;;;19.13;;
10007;SDS011;5043;41.766;26.204;2024-01-30T14:30:00;19.57;;;10.27;;
10007;SDS011;5043;41.766;26.204;2024-01-30T14:32:25;15.20;;;9.30;;
10007;SDS011;5043;41.766;26.204;2024-01-30T14:34:51;12.15;;;7.10;;